createdAt,value
2018-07-21T00:01:09.983Z,57.00
2018-07-21T00:03:38.604Z,56.40
2018-07-21T00:06:07.211Z,55.20
2018-07-21T00:08:35.780Z,54.90
2018-07-21T00:11:04.357Z,54.50
2018-07-21T00:13:32.975Z,54.50
2018-07-21T00:16:01.576Z,53.90
2018-07-21T00:18:30.209Z,53.90
2018-07-21T00:20:58.846Z,54.20
2018-07-21T00:23:27.423Z,54.50
2018-07-21T00:25:56.128Z,53.80
2018-07-21T00:28:24.673Z,53.60
2018-07-21T00:30:53.402Z,53.60
2018-07-21T00:33:21.961Z,53.60
2018-07-21T00:35:50.519Z,53.70
2018-07-21T00:38:19.107Z,53.80
2018-07-21T00:40:47.717Z,54.00
2018-07-21T00:43:16.427Z,53.50
2018-07-21T00:45:45.036Z,51.60
2018-07-21T00:48:13.619Z,51.80
2018-07-21T00:50:42.263Z,52.30
2018-07-21T00:53:10.991Z,53.00
2018-07-21T00:55:39.557Z,53.00
2018-07-21T00:58:08.131Z,53.10
2018-07-21T01:00:36.767Z,53.40
2018-07-21T01:03:05.403Z,53.50
2018-07-21T01:05:33.995Z,53.70
2018-07-21T01:08:02.590Z,53.60
2018-07-21T01:10:31.261Z,54.00
2018-07-21T01:12:59.893Z,54.20
2018-07-21T01:15:28.519Z,54.00
2018-07-21T01:17:57.203Z,54.10
2018-07-21T01:20:25.892Z,54.00
2018-07-21T01:22:54.460Z,54.30
2018-07-21T01:25:23.085Z,54.30
2018-07-21T01:27:51.717Z,54.60
2018-07-21T01:30:20.292Z,54.70
2018-07-21T01:32:48.826Z,54.80
2018-07-21T01:35:17.440Z,54.70
2018-07-21T01:37:46.053Z,54.80
2018-07-21T01:40:14.678Z,54.20
2018-07-21T01:42:43.218Z,54.70
2018-07-21T01:45:11.804Z,54.70
2018-07-21T01:47:40.350Z,54.50
2018-07-21T01:50:08.912Z,54.70
2018-07-21T01:52:37.501Z,54.50
2018-07-21T01:55:06.293Z,54.40
2018-07-21T01:57:34.897Z,54.40
2018-07-21T02:00:03.554Z,54.70
2018-07-21T02:02:32.113Z,54.80
2018-07-21T02:05:00.669Z,55.00
2018-07-21T02:07:29.252Z,55.20
2018-07-21T02:09:57.911Z,54.90
2018-07-21T02:12:26.484Z,55.00
2018-07-21T02:14:55.164Z,55.00
2018-07-21T02:17:24.862Z,55.00
2018-07-21T02:19:53.540Z,55.00
2018-07-21T02:22:22.090Z,54.90
2018-07-21T02:24:50.652Z,54.80
2018-07-21T02:27:19.206Z,54.60
2018-07-21T02:29:47.809Z,54.60
2018-07-21T02:32:16.366Z,54.50
2018-07-21T02:34:44.929Z,54.40
2018-07-21T02:37:13.558Z,54.50
2018-07-21T02:39:42.199Z,54.70
2018-07-21T02:42:10.811Z,54.90
2018-07-21T02:44:39.441Z,55.10
2018-07-21T02:47:08.545Z,55.20
2018-07-21T02:49:37.131Z,55.70
2018-07-21T02:52:05.718Z,55.60
2018-07-21T02:54:34.325Z,55.50
2018-07-21T02:57:02.878Z,55.30
2018-07-21T02:59:31.548Z,55.10
2018-07-21T03:02:00.129Z,55.20
2018-07-21T03:04:28.676Z,55.20
2018-07-21T03:06:57.288Z,55.30
2018-07-21T03:09:28.316Z,55.10
2018-07-21T03:11:56.983Z,55.50
2018-07-21T03:14:26.134Z,55.90
2018-07-21T03:16:54.685Z,55.60
2018-07-21T03:19:23.271Z,55.60
2018-07-21T03:21:51.811Z,55.60
2018-07-21T03:24:20.373Z,55.60
2018-07-21T03:26:48.930Z,56.20
2018-07-21T03:29:17.530Z,56.20
2018-07-21T03:31:46.097Z,56.40
2018-07-21T03:34:14.671Z,56.20
2018-07-21T03:36:43.261Z,57.10
2018-07-21T03:39:12.425Z,57.00
2018-07-21T03:41:41.693Z,57.20
2018-07-21T03:44:10.236Z,57.70
2018-07-21T03:46:38.813Z,57.70
2018-07-21T03:49:07.381Z,57.70
2018-07-21T03:51:35.963Z,57.80
2018-07-21T03:54:04.531Z,58.00
2018-07-21T03:56:33.079Z,57.90
2018-07-21T03:59:01.621Z,58.00
2018-07-21T04:01:30.194Z,57.80
2018-07-21T04:03:58.811Z,57.90
2018-07-21T04:06:27.422Z,57.50
2018-07-21T04:08:56.150Z,57.70
2018-07-21T04:11:24.695Z,58.10
2018-07-21T04:13:53.286Z,58.10
2018-07-21T04:16:21.873Z,57.90
2018-07-21T04:18:50.517Z,57.90
2018-07-21T04:21:19.125Z,57.90
2018-07-21T04:23:47.741Z,58.30
2018-07-21T04:26:16.294Z,58.80
2018-07-21T04:28:44.864Z,58.30
2018-07-21T04:31:13.471Z,58.60
2018-07-21T04:33:42.054Z,58.90
2018-07-21T04:36:10.609Z,60.20
2018-07-21T04:38:39.180Z,60.60
2018-07-21T04:41:07.781Z,60.70
2018-07-21T04:43:36.345Z,60.30
2018-07-21T04:46:04.954Z,60.40
2018-07-21T04:48:33.547Z,60.20
2018-07-21T04:51:02.123Z,60.60
2018-07-21T04:53:30.664Z,60.70
2018-07-21T04:55:59.333Z,59.80
2018-07-21T04:58:27.960Z,59.70
2018-07-21T05:00:56.610Z,59.70
2018-07-21T05:03:25.129Z,58.70
2018-07-21T05:05:53.737Z,59.00
2018-07-21T05:08:22.390Z,59.70
2018-07-21T05:10:50.963Z,59.40
2018-07-21T05:13:19.517Z,60.00
2018-07-21T05:15:48.207Z,58.80
2018-07-21T05:18:16.837Z,58.70
2018-07-21T05:20:45.471Z,59.50
2018-07-21T05:23:14.180Z,58.20
2018-07-21T05:25:42.740Z,58.20
2018-07-21T05:28:11.381Z,57.40
2018-07-21T05:30:39.935Z,56.80
2018-07-21T05:33:08.505Z,57.10
2018-07-21T05:35:37.126Z,57.10
2018-07-21T05:38:05.683Z,57.10
2018-07-21T05:40:34.264Z,56.70
2018-07-21T05:43:02.943Z,56.40
2018-07-21T05:45:31.537Z,56.10
2018-07-21T05:48:00.121Z,56.50
2018-07-21T05:50:28.697Z,56.10
2018-07-21T05:52:57.278Z,56.20
2018-07-21T05:55:25.890Z,56.40
2018-07-21T05:57:54.462Z,57.00
2018-07-21T06:00:23.055Z,56.70
2018-07-21T06:02:51.782Z,57.00
2018-07-21T06:05:20.359Z,57.20
2018-07-21T06:07:48.929Z,57.30
2018-07-21T06:10:17.548Z,58.60
2018-07-21T06:12:46.284Z,56.80
2018-07-21T06:15:14.956Z,55.60
2018-07-21T06:17:43.583Z,54.30
2018-07-21T06:20:12.216Z,54.00
2018-07-21T06:22:40.838Z,52.80
2018-07-21T06:25:09.503Z,52.20
2018-07-21T06:27:38.042Z,52.20
2018-07-21T06:30:06.750Z,51.20
2018-07-21T06:32:35.357Z,50.10
2018-07-21T06:35:03.945Z,48.40
2018-07-21T06:37:32.514Z,47.70
2018-07-21T06:40:01.054Z,47.00
2018-07-21T06:42:29.636Z,46.50
2018-07-21T06:44:58.357Z,46.00
2018-07-21T06:47:26.986Z,46.50
2018-07-21T06:49:55.627Z,47.20
2018-07-21T06:52:24.216Z,47.80
2018-07-21T06:54:52.830Z,48.20
2018-07-21T06:57:21.438Z,49.30
2018-07-21T06:59:50.051Z,49.60
2018-07-21T07:02:18.641Z,50.00
2018-07-21T07:04:47.374Z,49.90
2018-07-21T07:07:15.984Z,50.10
2018-07-21T07:09:44.607Z,50.60
2018-07-21T07:12:13.234Z,51.00
2018-07-21T07:14:42.117Z,51.10
2018-07-21T07:17:10.743Z,51.30
2018-07-21T07:19:39.368Z,51.80
2018-07-21T07:22:07.982Z,51.90
2018-07-21T07:24:36.571Z,51.80
2018-07-21T07:27:05.531Z,52.30
2018-07-21T07:29:34.102Z,51.90
2018-07-21T07:32:02.670Z,52.00
2018-07-21T07:34:31.246Z,52.90
2018-07-21T07:37:00.002Z,53.10
2018-07-21T07:39:28.613Z,53.20
2018-07-21T07:41:57.196Z,52.90
2018-07-21T07:44:25.782Z,52.40
2018-07-21T07:46:54.394Z,53.10
2018-07-21T07:49:23.762Z,52.90
2018-07-21T07:51:52.510Z,53.60
2018-07-21T07:54:21.096Z,54.30
2018-07-21T07:56:49.670Z,54.30
2018-07-21T07:59:18.358Z,54.50
2018-07-21T08:01:46.918Z,54.90
2018-07-21T08:04:15.562Z,55.00
2018-07-21T08:06:44.226Z,54.30
2018-07-21T08:09:13.363Z,53.50
2018-07-21T08:11:42.670Z,52.50
2018-07-21T08:14:11.385Z,52.00
2018-07-21T08:16:39.972Z,52.20
2018-07-21T08:19:09.210Z,52.30
2018-07-21T08:21:37.836Z,52.30
2018-07-21T08:24:06.428Z,52.10
2018-07-21T08:26:35.058Z,52.40
2018-07-21T08:29:03.772Z,51.80
2018-07-21T08:31:32.454Z,51.70
2018-07-21T08:34:01.054Z,50.80
2018-07-21T08:36:29.634Z,49.60
2018-07-21T08:38:58.195Z,48.80
2018-07-21T08:41:26.846Z,48.30
2018-07-21T08:43:55.434Z,48.10
2018-07-21T08:46:24.031Z,47.60
2018-07-21T08:48:52.622Z,46.40
2018-07-21T08:51:21.253Z,46.40
2018-07-21T08:53:49.851Z,47.60
2018-07-21T08:56:18.464Z,48.40
2018-07-21T08:58:47.675Z,49.70
2018-07-21T09:01:16.250Z,50.60
2018-07-21T09:03:44.907Z,51.50
2018-07-21T09:06:13.584Z,51.20
2018-07-21T09:08:42.266Z,51.20
2018-07-21T09:11:10.896Z,50.70
2018-07-21T09:13:39.577Z,50.50
2018-07-21T09:16:08.336Z,50.00
2018-07-21T09:18:36.975Z,49.60
2018-07-21T09:21:05.832Z,50.20
2018-07-21T09:23:34.399Z,48.90
2018-07-21T09:26:02.956Z,49.10
2018-07-21T09:28:31.634Z,49.40
2018-07-21T09:31:00.267Z,47.30
2018-07-21T09:33:28.840Z,46.30
2018-07-21T09:35:57.438Z,45.80
2018-07-21T09:38:26.057Z,46.30
2018-07-21T09:40:54.674Z,46.20
2018-07-21T09:43:23.286Z,45.80
2018-07-21T09:45:51.843Z,45.80
2018-07-21T09:48:20.437Z,45.70
2018-07-21T09:50:49.211Z,45.40
2018-07-21T09:53:17.810Z,45.30
2018-07-21T09:55:46.502Z,45.10
2018-07-21T09:58:15.024Z,45.00
2018-07-21T10:00:48.876Z,45.20
2018-07-21T10:03:17.445Z,45.20
2018-07-21T10:05:46.034Z,45.10
2018-07-21T10:08:14.636Z,45.60
2018-07-21T10:10:43.202Z,45.60
2018-07-21T10:13:11.796Z,45.60
2018-07-21T10:15:40.375Z,46.90
2018-07-21T10:18:09.013Z,46.10
2018-07-21T10:20:37.590Z,45.70
2018-07-21T10:23:06.706Z,45.40
2018-07-21T10:25:40.686Z,45.40
2018-07-21T10:28:14.606Z,45.30
2018-07-21T10:30:43.158Z,45.60
2018-07-21T10:33:11.801Z,45.00
2018-07-21T10:35:40.317Z,45.50
2018-07-21T10:38:09.029Z,44.40
2018-07-21T10:40:37.522Z,45.00
2018-07-21T10:43:06.446Z,46.10
2018-07-21T10:45:35.086Z,46.50
2018-07-21T10:48:03.808Z,47.10
2018-07-21T10:50:32.442Z,47.00
2018-07-21T10:53:01.050Z,47.00
2018-07-21T10:55:29.728Z,45.70
2018-07-21T10:57:58.398Z,44.60
2018-07-21T11:00:26.983Z,45.10
2018-07-21T11:02:55.580Z,44.50
2018-07-21T11:05:24.208Z,44.50
2018-07-21T11:07:52.874Z,43.30
2018-07-21T11:10:21.534Z,42.70
2018-07-21T11:12:50.171Z,42.30
2018-07-21T11:15:18.846Z,42.50
2018-07-21T11:17:47.436Z,42.50
2018-07-21T11:20:16.145Z,42.40
2018-07-21T11:22:44.770Z,42.40
2018-07-21T11:25:13.415Z,42.40
2018-07-21T11:27:42.101Z,41.70
2018-07-21T11:30:10.794Z,42.30
2018-07-21T11:32:39.396Z,42.30
2018-07-21T11:35:08.039Z,42.20
2018-07-21T11:37:36.663Z,41.80
2018-07-21T11:40:05.465Z,41.10
2018-07-21T11:42:34.142Z,40.80
2018-07-21T11:45:02.786Z,39.80
2018-07-21T11:47:31.483Z,39.70
2018-07-21T11:50:00.071Z,39.60
2018-07-21T11:52:28.735Z,40.30
2018-07-21T11:54:57.391Z,40.40
2018-07-21T11:57:26.051Z,40.00
2018-07-21T11:59:54.687Z,39.70
2018-07-21T12:02:23.303Z,40.20
2018-07-21T12:04:51.920Z,40.60
2018-07-21T12:07:20.536Z,40.40
2018-07-21T12:09:49.115Z,40.60
2018-07-21T12:12:17.698Z,40.50
2018-07-21T12:14:46.318Z,40.00
2018-07-21T12:17:14.884Z,39.90
2018-07-21T12:19:43.521Z,39.70
2018-07-21T12:22:12.163Z,39.60
2018-07-21T12:24:40.782Z,40.30
2018-07-21T12:27:09.391Z,40.50
2018-07-21T12:29:38.898Z,40.50
2018-07-21T12:32:07.528Z,41.00
2018-07-21T12:34:36.210Z,40.40
2018-07-21T12:37:04.936Z,39.70
2018-07-21T12:39:33.556Z,39.10
2018-07-21T12:42:05.161Z,38.30
2018-07-21T12:44:33.788Z,38.00
2018-07-21T12:47:02.361Z,37.40
2018-07-21T12:49:31.039Z,37.80
2018-07-21T12:51:59.653Z,38.50
2018-07-21T12:54:28.311Z,39.00
2018-07-21T12:56:56.919Z,38.60
2018-07-21T12:59:25.522Z,38.80
2018-07-21T13:01:54.194Z,39.70
2018-07-21T13:04:22.803Z,39.30
2018-07-21T13:06:51.403Z,39.20
2018-07-21T13:09:20.016Z,39.00
2018-07-21T13:11:48.659Z,39.80
2018-07-21T13:14:17.278Z,39.40
2018-07-21T13:16:45.928Z,39.70
2018-07-21T13:19:14.594Z,39.50
2018-07-21T13:21:43.230Z,40.00
2018-07-21T13:24:11.854Z,39.70
2018-07-21T13:26:40.538Z,40.50
2018-07-21T13:29:09.218Z,41.20
2018-07-21T13:31:37.873Z,41.70
2018-07-21T13:34:06.500Z,41.90
2018-07-21T13:36:35.138Z,41.70
2018-07-21T13:39:05.894Z,42.70
2018-07-21T13:41:34.501Z,42.50
2018-07-21T13:44:03.163Z,43.40
2018-07-21T13:46:31.820Z,44.40
2018-07-21T13:49:00.552Z,44.70
2018-07-21T13:51:30.091Z,45.10
2018-07-21T13:53:58.799Z,45.40
2018-07-21T13:56:28.564Z,45.00
2018-07-21T13:58:57.278Z,45.20
2018-07-21T14:01:25.877Z,45.60
2018-07-21T14:03:54.546Z,45.50
2018-07-21T14:06:23.305Z,46.00
2018-07-21T14:08:51.934Z,46.20
2018-07-21T14:11:20.560Z,46.30
2018-07-21T14:13:49.178Z,46.20
2018-07-21T14:16:17.866Z,46.30
2018-07-21T14:18:46.486Z,46.70
2018-07-21T14:21:15.128Z,46.90
2018-07-21T14:23:43.728Z,47.10
2018-07-21T14:26:12.394Z,47.10
2018-07-21T14:28:40.954Z,47.00
2018-07-21T14:31:09.578Z,47.00
2018-07-21T14:33:38.206Z,47.60
2018-07-21T14:36:07.067Z,47.10
2018-07-21T14:38:35.516Z,48.00
2018-07-21T14:41:04.368Z,48.20
2018-07-21T14:43:33.058Z,48.20
2018-07-21T14:46:01.646Z,48.60
2018-07-21T14:48:30.377Z,49.00
2018-07-21T14:50:58.950Z,48.60
2018-07-21T14:53:27.532Z,48.80
2018-07-21T14:55:56.146Z,48.70
2018-07-21T14:58:24.758Z,48.60
2018-07-21T15:00:53.380Z,48.50
2018-07-21T15:03:22.207Z,48.70
2018-07-21T15:05:50.985Z,49.10
2018-07-21T15:08:19.593Z,49.30
2018-07-21T15:10:48.240Z,48.90
2018-07-21T15:13:16.958Z,49.00
2018-07-21T15:15:45.627Z,48.90
2018-07-21T15:18:14.207Z,49.00
2018-07-21T15:20:42.859Z,48.80
2018-07-21T15:23:11.504Z,49.10
2018-07-21T15:25:40.191Z,49.00
2018-07-21T15:28:08.911Z,49.10
2018-07-21T15:30:37.482Z,49.00
2018-07-21T15:33:06.115Z,49.50
2018-07-21T15:35:34.708Z,49.70
2018-07-21T15:38:03.401Z,50.40
2018-07-21T15:40:32.071Z,51.00
2018-07-21T15:43:00.754Z,51.10
2018-07-21T15:45:29.352Z,51.50
2018-07-21T15:47:57.943Z,51.40
2018-07-21T15:50:26.639Z,51.60
2018-07-21T15:52:55.240Z,51.90
2018-07-21T15:55:23.942Z,51.20
2018-07-21T15:57:52.965Z,51.10
2018-07-21T16:00:21.633Z,51.10
2018-07-21T16:02:50.315Z,52.00
2018-07-21T16:05:18.971Z,52.00
2018-07-21T16:07:47.626Z,52.00
2018-07-21T16:10:16.265Z,51.90
2018-07-21T16:12:44.867Z,52.10
2018-07-21T16:15:13.534Z,51.80
2018-07-21T16:17:42.125Z,53.60
2018-07-21T16:20:10.820Z,53.40
2018-07-21T16:22:39.434Z,54.70
2018-07-21T16:25:08.044Z,54.30
2018-07-21T16:27:36.714Z,55.30
2018-07-21T16:30:05.725Z,55.10
2018-07-21T16:32:34.552Z,56.40
2018-07-21T16:35:03.186Z,56.80
2018-07-21T16:37:31.873Z,56.60
2018-07-21T16:40:00.454Z,57.20
2018-07-21T16:42:29.198Z,57.30
2018-07-21T16:44:57.839Z,57.10
2018-07-21T16:47:26.482Z,58.00
2018-07-21T16:49:55.092Z,58.50
2018-07-21T16:52:23.682Z,58.40
2018-07-21T16:54:52.427Z,58.10
2018-07-21T16:57:21.071Z,58.50
2018-07-21T16:59:49.794Z,58.20
2018-07-21T17:02:18.427Z,57.10
2018-07-21T17:04:47.110Z,57.30
2018-07-21T17:07:15.742Z,57.20
2018-07-21T17:09:44.420Z,56.90
2018-07-21T17:12:13.170Z,57.50
2018-07-21T17:14:41.815Z,57.60
2018-07-21T17:17:10.388Z,56.70
2018-07-21T17:19:38.978Z,56.20
2018-07-21T17:22:07.572Z,56.80
2018-07-21T17:24:36.235Z,56.30
2018-07-21T17:27:05.254Z,56.30
2018-07-21T17:29:33.992Z,56.90
2018-07-21T17:32:02.566Z,56.80
2018-07-21T17:34:31.544Z,56.50
2018-07-21T17:37:00.140Z,56.40
2018-07-21T17:39:28.721Z,56.70
2018-07-21T17:41:57.350Z,57.00
2018-07-21T17:44:25.969Z,56.80
2018-07-21T17:46:54.530Z,56.50
2018-07-21T17:49:23.090Z,56.80
2018-07-21T17:51:51.717Z,56.40
2018-07-21T17:54:20.354Z,56.10
2018-07-21T17:56:49.267Z,56.40
2018-07-21T17:59:17.909Z,56.00
2018-07-21T18:01:46.548Z,55.80
2018-07-21T18:04:15.208Z,55.70
2018-07-21T18:06:43.875Z,55.70
2018-07-21T18:09:12.607Z,55.10
2018-07-21T18:11:41.265Z,54.60
2018-07-21T18:14:09.958Z,54.60
2018-07-21T18:16:38.722Z,53.90
2018-07-21T18:19:07.350Z,53.60
2018-07-21T18:21:36.113Z,52.80
2018-07-21T18:24:04.914Z,53.10
2018-07-21T18:26:33.620Z,52.50
2018-07-21T18:29:02.216Z,52.20
2018-07-21T18:31:30.812Z,52.20
2018-07-21T18:33:59.420Z,52.00
2018-07-21T18:36:28.239Z,52.20
2018-07-21T18:38:56.904Z,52.40
2018-07-21T18:41:25.527Z,52.20
2018-07-21T18:43:54.141Z,52.40
2018-07-21T18:46:22.742Z,52.30
2018-07-21T18:48:51.406Z,52.40
2018-07-21T18:51:19.984Z,52.00
2018-07-21T18:53:48.594Z,52.20
2018-07-21T18:56:17.203Z,52.50
2018-07-21T18:58:45.978Z,52.90
2018-07-21T19:01:14.575Z,52.60
2018-07-21T19:03:43.146Z,52.80
2018-07-21T19:06:11.708Z,52.50
2018-07-21T19:08:45.737Z,52.60
2018-07-21T19:11:14.417Z,52.60
2018-07-21T19:13:43.024Z,52.70
2018-07-21T19:18:50.884Z,52.50
2018-07-21T19:21:21.990Z,52.60
2018-07-21T19:23:51.562Z,52.90
2018-07-21T19:26:25.672Z,53.40
2018-07-21T19:28:54.422Z,53.60
2018-07-21T19:31:23.344Z,53.80
2018-07-21T19:33:52.285Z,54.10
2018-07-21T19:36:21.004Z,53.90
2018-07-21T19:38:49.901Z,54.10
2018-07-21T19:41:23.901Z,54.00
2018-07-21T19:43:52.650Z,54.20
2018-07-21T19:46:21.282Z,54.70
2018-07-21T19:48:49.915Z,55.00
2018-07-21T19:51:18.501Z,55.00
2018-07-21T19:53:47.147Z,55.40
2018-07-21T19:56:15.771Z,55.50
2018-07-21T19:58:44.451Z,55.70
2018-07-21T20:01:13.068Z,55.90
2018-07-21T20:03:41.635Z,55.90
2018-07-21T20:06:10.271Z,55.80
2018-07-21T20:08:38.983Z,56.20
2018-07-21T20:11:07.588Z,55.80
2018-07-21T20:13:36.208Z,55.70
2018-07-21T20:16:05.058Z,55.40
2018-07-21T20:18:33.677Z,55.30
2018-07-21T20:21:02.338Z,55.70
2018-07-21T20:23:30.950Z,55.70
2018-07-21T20:25:59.674Z,55.70
2018-07-21T20:28:28.330Z,55.80
2018-07-21T20:30:56.934Z,55.80
2018-07-21T20:33:25.537Z,55.90
2018-07-21T20:35:54.121Z,56.30
2018-07-21T20:38:22.804Z,56.60
2018-07-21T20:40:51.483Z,56.70
2018-07-21T20:43:20.220Z,56.70
2018-07-21T20:45:48.781Z,56.50
2018-07-21T20:48:17.382Z,56.80
2018-07-21T20:50:46.015Z,56.30
2018-07-21T20:53:14.658Z,56.10
2018-07-21T20:55:43.270Z,56.00
2018-07-21T20:58:11.899Z,56.30
2018-07-21T21:00:40.519Z,56.60
2018-07-21T21:03:09.099Z,56.80
2018-07-21T21:05:37.713Z,57.40
2018-07-21T21:08:06.339Z,56.30
2018-07-21T21:10:35.486Z,56.50
2018-07-21T21:13:04.079Z,56.60
2018-07-21T21:15:32.623Z,56.90
2018-07-21T21:18:01.221Z,57.00
2018-07-21T21:20:29.785Z,57.20
2018-07-21T21:22:58.397Z,57.20
2018-07-21T21:25:26.978Z,57.30
2018-07-21T21:27:55.532Z,57.40
2018-07-21T21:30:24.157Z,57.30
2018-07-21T21:32:52.775Z,57.30
2018-07-21T21:35:21.413Z,57.20
2018-07-21T21:37:50.270Z,57.50
2018-07-21T21:40:19.177Z,57.80
2018-07-21T21:42:47.791Z,58.10
2018-07-21T21:45:16.397Z,58.30
2018-07-21T21:47:45.007Z,58.50
2018-07-21T21:50:13.578Z,58.80
2018-07-21T21:52:43.855Z,58.80
2018-07-21T21:55:12.534Z,59.00
2018-07-21T21:57:41.128Z,59.00
2018-07-21T22:00:11.717Z,59.70
2018-07-21T22:02:40.701Z,60.20
2018-07-21T22:05:09.553Z,60.10
2018-07-21T22:07:38.478Z,59.50
2018-07-21T22:10:07.174Z,59.90
2018-07-21T22:12:36.401Z,59.70
2018-07-21T22:15:10.609Z,60.40
2018-07-21T22:17:39.268Z,60.10
2018-07-21T22:20:08.042Z,60.40
2018-07-21T22:22:36.674Z,60.10
2018-07-21T22:25:05.384Z,59.60
2018-07-21T22:27:33.936Z,59.10
2018-07-21T22:30:02.557Z,58.40
2018-07-21T22:32:31.147Z,57.80
2018-07-21T22:34:59.956Z,58.20
2018-07-21T22:37:28.584Z,57.80
2018-07-21T22:39:57.450Z,57.50
2018-07-21T22:42:26.169Z,57.00
2018-07-21T22:44:54.840Z,56.80
2018-07-21T22:47:23.478Z,56.60
2018-07-21T22:49:52.167Z,56.10
2018-07-21T22:52:20.745Z,56.10
2018-07-21T22:54:49.430Z,56.40
2018-07-21T22:57:18.092Z,56.10
2018-07-21T22:59:46.786Z,55.70
2018-07-21T23:02:15.453Z,55.30
2018-07-21T23:04:44.097Z,55.40
2018-07-21T23:07:12.795Z,56.70
2018-07-21T23:09:41.476Z,56.90
2018-07-21T23:12:10.164Z,57.00
2018-07-21T23:14:38.821Z,57.20
2018-07-21T23:17:07.730Z,57.40
2018-07-21T23:19:36.343Z,56.80
2018-07-21T23:22:04.979Z,56.90
2018-07-21T23:24:33.582Z,57.10
2018-07-21T23:27:02.199Z,57.30
2018-07-21T23:29:30.943Z,57.10
2018-07-21T23:31:59.646Z,58.00
2018-07-21T23:34:28.371Z,58.60
2018-07-21T23:36:57.042Z,58.70
2018-07-21T23:39:25.646Z,59.30
2018-07-21T23:41:54.542Z,60.40
2018-07-21T23:44:23.203Z,60.30
2018-07-21T23:46:51.819Z,60.40
2018-07-21T23:49:20.406Z,60.90
2018-07-21T23:51:49.019Z,59.80
2018-07-21T23:54:17.726Z,59.30
2018-07-21T23:56:46.322Z,59.80
2018-07-21T23:59:14.934Z,59.30
